sensor_id;sensor_type;location;lat;lon;timestamp;temperature;humidity
42755;DHT22;28407;51.830;5.684;2022-12-18T00:00:56;-0.70;83.80
42755;DHT22;28407;51.830;5.684;2022-12-18T00:02:56;-0.70;83.80
42755;DHT22;28407;51.830;5.684;2022-12-18T00:04:57;-0.70;83.80
42755;DHT22;28407;51.830;5.684;2022-12-18T00:06:59;-0.80;83.70
42755;DHT22;28407;51.830;5.684;2022-12-18T00:09:01;-0.70;83.50
42755;DHT22;28407;51.830;5.684;2022-12-18T00:11:05;-0.80;83.40
42755;DHT22;28407;51.830;5.684;2022-12-18T00:13:06;-0.80;83.40
42755;DHT22;28407;51.830;5.684;2022-12-18T00:15:07;-0.80;83.50
42755;DHT22;28407;51.830;5.684;2022-12-18T00:17:07;-0.80;83.50
42755;DHT22;28407;51.830;5.684;2022-12-18T00:19:10;-0.90;83.40
42755;DHT22;28407;51.830;5.684;2022-12-18T00:21:11;-0.90;83.40
42755;DHT22;28407;51.830;5.684;2022-12-18T00:23:12;-0.90;83.30
42755;DHT22;28407;51.830;5.684;2022-12-18T00:25:13;-0.90;83.20
42755;DHT22;28407;51.830;5.684;2022-12-18T00:27:13;-0.90;83.20
42755;DHT22;28407;51.830;5.684;2022-12-18T00:29:14;-0.90;83.20
42755;DHT22;28407;51.830;5.684;2022-12-18T00:31:18;-0.90;83.10
42755;DHT22;28407;51.830;5.684;2022-12-18T00:33:19;-0.90;83.10
42755;DHT22;28407;51.830;5.684;2022-12-18T00:35:20;-1.00;83.00
42755;DHT22;28407;51.830;5.684;2022-12-18T00:37:20;-1.00;82.90
42755;DHT22;28407;51.830;5.684;2022-12-18T00:39:25;-1.00;82.90
42755;DHT22;28407;51.830;5.684;2022-12-18T00:41:26;-1.00;82.90
42755;DHT22;28407;51.830;5.684;2022-12-18T00:43:46;-1.00;82.80
42755;DHT22;28407;51.830;5.684;2022-12-18T00:45:47;-1.00;82.80
42755;DHT22;28407;51.830;5.684;2022-12-18T00:47:47;-1.00;82.70
42755;DHT22;28407;51.830;5.684;2022-12-18T00:49:48;-1.00;82.70
42755;DHT22;28407;51.830;5.684;2022-12-18T00:51:49;-1.00;82.60
42755;DHT22;28407;51.830;5.684;2022-12-18T00:53:50;-1.00;82.50
42755;DHT22;28407;51.830;5.684;2022-12-18T00:55:51;-1.00;82.50
42755;DHT22;28407;51.830;5.684;2022-12-18T00:57:52;-1.00;82.40
42755;DHT22;28407;51.830;5.684;2022-12-18T00:59:53;-1.00;82.40
42755;DHT22;28407;51.830;5.684;2022-12-18T01:01:53;-1.10;82.40
42755;DHT22;28407;51.830;5.684;2022-12-18T01:03:54;-1.10;82.40
42755;DHT22;28407;51.830;5.684;2022-12-18T01:05:58;-1.10;82.30
42755;DHT22;28407;51.830;5.684;2022-12-18T01:07:59;-1.10;82.30
42755;DHT22;28407;51.830;5.684;2022-12-18T01:09:59;-1.10;82.30
42755;DHT22;28407;51.830;5.684;2022-12-18T01:12:00;-1.10;82.20
42755;DHT22;28407;51.830;5.684;2022-12-18T01:14:01;-1.10;82.20
42755;DHT22;28407;51.830;5.684;2022-12-18T01:16:01;-1.20;82.10
42755;DHT22;28407;51.830;5.684;2022-12-18T01:18:06;-1.20;82.10
42755;DHT22;28407;51.830;5.684;2022-12-18T01:20:08;-1.20;82.10
42755;DHT22;28407;51.830;5.684;2022-12-18T01:22:09;-1.20;82.10
42755;DHT22;28407;51.830;5.684;2022-12-18T01:24:11;-1.20;82.00
42755;DHT22;28407;51.830;5.684;2022-12-18T01:26:16;-1.20;81.90
42755;DHT22;28407;51.830;5.684;2022-12-18T01:28:17;-1.20;81.90
42755;DHT22;28407;51.830;5.684;2022-12-18T01:30:18;-1.20;81.80
42755;DHT22;28407;51.830;5.684;2022-12-18T01:32:20;-1.20;81.80
42755;DHT22;28407;51.830;5.684;2022-12-18T01:34:21;-1.20;81.80
42755;DHT22;28407;51.830;5.684;2022-12-18T01:36:25;-1.20;81.80
42755;DHT22;28407;51.830;5.684;2022-12-18T01:38:28;-1.20;81.80
42755;DHT22;28407;51.830;5.684;2022-12-18T01:40:28;-1.20;81.80
42755;DHT22;28407;51.830;5.684;2022-12-18T01:42:30;-1.20;81.70
42755;DHT22;28407;51.830;5.684;2022-12-18T01:45:45;-1.20;81.80
42755;DHT22;28407;51.830;5.684;2022-12-18T01:47:22;-1.20;81.80
42755;DHT22;28407;51.830;5.684;2022-12-18T01:49:23;-1.20;82.40
42755;DHT22;28407;51.830;5.684;2022-12-18T01:51:25;-1.20;81.70
42755;DHT22;28407;51.830;5.684;2022-12-18T01:53:27;-1.20;81.70
42755;DHT22;28407;51.830;5.684;2022-12-18T01:55:32;-1.30;81.60
42755;DHT22;28407;51.830;5.684;2022-12-18T01:57:35;-1.20;81.70
42755;DHT22;28407;51.830;5.684;2022-12-18T01:59:37;-1.20;81.70
42755;DHT22;28407;51.830;5.684;2022-12-18T02:01:40;-1.30;81.60
42755;DHT22;28407;51.830;5.684;2022-12-18T02:03:44;-1.30;81.70
42755;DHT22;28407;51.830;5.684;2022-12-18T02:05:50;-1.30;81.70
42755;DHT22;28407;51.830;5.684;2022-12-18T02:08:03;-1.30;81.80
42755;DHT22;28407;51.830;5.684;2022-12-18T02:10:11;-1.30;81.80
42755;DHT22;28407;51.830;5.684;2022-12-18T02:12:19;-1.30;81.70
42755;DHT22;28407;51.830;5.684;2022-12-18T02:14:38;-1.30;81.80
42755;DHT22;28407;51.830;5.684;2022-12-18T02:16:47;-1.30;81.70
42755;DHT22;28407;51.830;5.684;2022-12-18T02:18:57;-1.30;81.70
42755;DHT22;28407;51.830;5.684;2022-12-18T02:21:12;-1.30;81.70
42755;DHT22;28407;51.830;5.684;2022-12-18T02:28:20;-1.30;81.60
42755;DHT22;28407;51.830;5.684;2022-12-18T02:30:22;-1.30;81.60
42755;DHT22;28407;51.830;5.684;2022-12-18T02:32:39;-1.30;81.60
42755;DHT22;28407;51.830;5.684;2022-12-18T02:34:41;-1.30;81.60
42755;DHT22;28407;51.830;5.684;2022-12-18T02:36:48;-1.30;81.50
42755;DHT22;28407;51.830;5.684;2022-12-18T02:38:52;-1.30;81.60
42755;DHT22;28407;51.830;5.684;2022-12-18T02:40:53;-1.30;81.50
42755;DHT22;28407;51.830;5.684;2022-12-18T02:42:55;-1.30;81.50
42755;DHT22;28407;51.830;5.684;2022-12-18T02:45:02;-1.30;81.50
42755;DHT22;28407;51.830;5.684;2022-12-18T02:47:04;-1.30;81.50
42755;DHT22;28407;51.830;5.684;2022-12-18T02:53:51;-1.40;81.40
42755;DHT22;28407;51.830;5.684;2022-12-18T02:56:18;-1.40;81.40
42755;DHT22;28407;51.830;5.684;2022-12-18T02:58:52;-1.40;81.40
42755;DHT22;28407;51.830;5.684;2022-12-18T03:01:21;-1.40;81.40
42755;DHT22;28407;51.830;5.684;2022-12-18T03:03:27;-1.40;81.30
42755;DHT22;28407;51.830;5.684;2022-12-18T03:05:33;-1.40;81.30
42755;DHT22;28407;51.830;5.684;2022-12-18T03:09:50;-1.50;81.30
42755;DHT22;28407;51.830;5.684;2022-12-18T03:11:56;-1.50;81.30
42755;DHT22;28407;51.830;5.684;2022-12-18T03:14:20;-1.40;81.40
42755;DHT22;28407;51.830;5.684;2022-12-18T03:16:27;-1.50;81.30
42755;DHT22;28407;51.830;5.684;2022-12-18T03:18:47;-1.40;81.30
42755;DHT22;28407;51.830;5.684;2022-12-18T03:20:50;-1.40;81.30
42755;DHT22;28407;51.830;5.684;2022-12-18T03:22:59;-1.40;81.20
42755;DHT22;28407;51.830;5.684;2022-12-18T03:25:06;-1.40;81.20
42755;DHT22;28407;51.830;5.684;2022-12-18T03:27:12;-1.40;81.10
42755;DHT22;28407;51.830;5.684;2022-12-18T03:29:19;-1.40;81.10
42755;DHT22;28407;51.830;5.684;2022-12-18T03:31:24;-1.40;81.10
42755;DHT22;28407;51.830;5.684;2022-12-18T03:33:41;-1.50;81.00
42755;DHT22;28407;51.830;5.684;2022-12-18T03:35:44;-1.50;81.10
42755;DHT22;28407;51.830;5.684;2022-12-18T03:37:46;-1.50;81.10
42755;DHT22;28407;51.830;5.684;2022-12-18T03:39:47;-1.50;81.00
42755;DHT22;28407;51.830;5.684;2022-12-18T03:41:57;-1.50;81.10
42755;DHT22;28407;51.830;5.684;2022-12-18T03:44:35;-1.50;81.00
42755;DHT22;28407;51.830;5.684;2022-12-18T03:47:25;-1.50;81.00
42755;DHT22;28407;51.830;5.684;2022-12-18T03:51:19;-1.60;80.90
42755;DHT22;28407;51.830;5.684;2022-12-18T03:55:47;-1.60;81.00
42755;DHT22;28407;51.830;5.684;2022-12-18T03:57:51;-1.60;81.00
42755;DHT22;28407;51.830;5.684;2022-12-18T03:59:57;-1.60;80.90
42755;DHT22;28407;51.830;5.684;2022-12-18T04:02:05;-1.60;81.00
42755;DHT22;28407;51.830;5.684;2022-12-18T04:04:08;-1.60;81.00
42755;DHT22;28407;51.830;5.684;2022-12-18T04:06:13;-1.60;80.90
42755;DHT22;28407;51.830;5.684;2022-12-18T04:08:16;-1.60;81.00
42755;DHT22;28407;51.830;5.684;2022-12-18T04:10:23;-1.60;81.00
42755;DHT22;28407;51.830;5.684;2022-12-18T04:12:26;-1.60;81.00
42755;DHT22;28407;51.830;5.684;2022-12-18T04:14:27;-1.60;81.00
42755;DHT22;28407;51.830;5.684;2022-12-18T04:16:30;-1.70;80.90
42755;DHT22;28407;51.830;5.684;2022-12-18T04:18:35;-1.70;80.80
42755;DHT22;28407;51.830;5.684;2022-12-18T04:20:36;-1.70;81.00
42755;DHT22;28407;51.830;5.684;2022-12-18T04:22:37;-1.70;81.00
42755;DHT22;28407;51.830;5.684;2022-12-18T04:24:38;-1.70;81.10
42755;DHT22;28407;51.830;5.684;2022-12-18T04:26:46;-1.70;81.10
42755;DHT22;28407;51.830;5.684;2022-12-18T04:29:06;-1.70;81.20
42755;DHT22;28407;51.830;5.684;2022-12-18T04:31:07;-1.70;81.10
42755;DHT22;28407;51.830;5.684;2022-12-18T04:33:12;-1.70;81.10
42755;DHT22;28407;51.830;5.684;2022-12-18T04:35:17;-1.70;81.10
42755;DHT22;28407;51.830;5.684;2022-12-18T04:37:18;-1.70;81.00
42755;DHT22;28407;51.830;5.684;2022-12-18T04:39:20;-1.70;81.00
42755;DHT22;28407;51.830;5.684;2022-12-18T04:41:23;-1.70;80.90
42755;DHT22;28407;51.830;5.684;2022-12-18T04:43:26;-1.70;80.90
42755;DHT22;28407;51.830;5.684;2022-12-18T04:45:26;-1.70;80.90
42755;DHT22;28407;51.830;5.684;2022-12-18T04:47:27;-1.70;80.80
42755;DHT22;28407;51.830;5.684;2022-12-18T04:49:28;-1.70;80.80
42755;DHT22;28407;51.830;5.684;2022-12-18T04:51:28;-1.70;80.90
42755;DHT22;28407;51.830;5.684;2022-12-18T04:53:29;-1.70;80.90
42755;DHT22;28407;51.830;5.684;2022-12-18T04:55:30;-1.70;80.90
42755;DHT22;28407;51.830;5.684;2022-12-18T04:57:30;-1.70;80.90
42755;DHT22;28407;51.830;5.684;2022-12-18T04:59:31;-1.70;80.90
42755;DHT22;28407;51.830;5.684;2022-12-18T05:01:32;-1.70;80.90
42755;DHT22;28407;51.830;5.684;2022-12-18T05:03:33;-1.60;80.90
42755;DHT22;28407;51.830;5.684;2022-12-18T05:05:37;-1.60;80.90
42755;DHT22;28407;51.830;5.684;2022-12-18T05:07:37;-1.60;80.80
42755;DHT22;28407;51.830;5.684;2022-12-18T05:09:38;-1.60;80.80
42755;DHT22;28407;51.830;5.684;2022-12-18T05:11:38;-1.70;80.70
42755;DHT22;28407;51.830;5.684;2022-12-18T05:13:39;-1.60;80.80
42755;DHT22;28407;51.830;5.684;2022-12-18T05:15:40;-1.60;80.90
42755;DHT22;28407;51.830;5.684;2022-12-18T05:17:42;-1.60;80.80
42755;DHT22;28407;51.830;5.684;2022-12-18T05:19:42;-1.70;80.70
42755;DHT22;28407;51.830;5.684;2022-12-18T05:21:43;-1.60;80.70
42755;DHT22;28407;51.830;5.684;2022-12-18T05:23:44;-1.70;80.60
42755;DHT22;28407;51.830;5.684;2022-12-18T05:26:14;-1.70;80.60
42755;DHT22;28407;51.830;5.684;2022-12-18T05:28:15;-1.70;80.60
42755;DHT22;28407;51.830;5.684;2022-12-18T05:30:16;-1.70;80.60
42755;DHT22;28407;51.830;5.684;2022-12-18T05:32:16;-1.70;80.60
42755;DHT22;28407;51.830;5.684;2022-12-18T05:34:17;-1.60;80.60
42755;DHT22;28407;51.830;5.684;2022-12-18T05:36:18;-1.60;80.60
42755;DHT22;28407;51.830;5.684;2022-12-18T05:38:19;-1.60;80.70
42755;DHT22;28407;51.830;5.684;2022-12-18T05:40:20;-1.70;80.50
42755;DHT22;28407;51.830;5.684;2022-12-18T05:42:21;-1.70;80.50
42755;DHT22;28407;51.830;5.684;2022-12-18T05:44:22;-1.70;80.50
42755;DHT22;28407;51.830;5.684;2022-12-18T05:46:22;-1.70;80.50
42755;DHT22;28407;51.830;5.684;2022-12-18T05:48:23;-1.70;80.50
42755;DHT22;28407;51.830;5.684;2022-12-18T05:50:24;-1.70;80.50
42755;DHT22;28407;51.830;5.684;2022-12-18T05:52:24;-1.70;80.50
42755;DHT22;28407;51.830;5.684;2022-12-18T05:54:27;-1.70;80.50
42755;DHT22;28407;51.830;5.684;2022-12-18T05:56:28;-1.70;80.50
42755;DHT22;28407;51.830;5.684;2022-12-18T05:58:29;-1.70;80.50
42755;DHT22;28407;51.830;5.684;2022-12-18T06:00:31;-1.60;80.60
42755;DHT22;28407;51.830;5.684;2022-12-18T06:02:32;-1.70;80.50
42755;DHT22;28407;51.830;5.684;2022-12-18T06:04:33;-1.60;80.50
42755;DHT22;28407;51.830;5.684;2022-12-18T06:06:34;-1.70;80.50
42755;DHT22;28407;51.830;5.684;2022-12-18T06:08:34;-1.70;80.50
42755;DHT22;28407;51.830;5.684;2022-12-18T06:10:35;-1.70;80.50
42755;DHT22;28407;51.830;5.684;2022-12-18T06:12:36;-1.70;80.70
42755;DHT22;28407;51.830;5.684;2022-12-18T06:14:36;-1.80;80.70
42755;DHT22;28407;51.830;5.684;2022-12-18T06:16:37;-1.80;80.70
42755;DHT22;28407;51.830;5.684;2022-12-18T06:18:38;-1.80;80.70
42755;DHT22;28407;51.830;5.684;2022-12-18T06:20:38;-1.80;80.70
42755;DHT22;28407;51.830;5.684;2022-12-18T06:22:41;-1.80;80.80
42755;DHT22;28407;51.830;5.684;2022-12-18T06:24:42;-1.80;81.40
42755;DHT22;28407;51.830;5.684;2022-12-18T06:26:42;-1.80;80.70
42755;DHT22;28407;51.830;5.684;2022-12-18T06:28:43;-1.70;80.80
42755;DHT22;28407;51.830;5.684;2022-12-18T06:30:45;-1.70;80.80
42755;DHT22;28407;51.830;5.684;2022-12-18T06:32:45;-1.70;80.80
42755;DHT22;28407;51.830;5.684;2022-12-18T06:34:46;-1.70;80.60
42755;DHT22;28407;51.830;5.684;2022-12-18T06:36:47;-1.70;80.60
42755;DHT22;28407;51.830;5.684;2022-12-18T06:38:47;-1.80;80.60
42755;DHT22;28407;51.830;5.684;2022-12-18T06:40:48;-1.70;80.60
42755;DHT22;28407;51.830;5.684;2022-12-18T06:42:48;-1.70;80.60
42755;DHT22;28407;51.830;5.684;2022-12-18T06:44:49;-1.70;80.70
42755;DHT22;28407;51.830;5.684;2022-12-18T06:46:50;-1.80;80.60
42755;DHT22;28407;51.830;5.684;2022-12-18T06:48:50;-1.80;80.70
42755;DHT22;28407;51.830;5.684;2022-12-18T06:50:51;-1.80;80.70
42755;DHT22;28407;51.830;5.684;2022-12-18T06:52:51;-1.80;80.80
42755;DHT22;28407;51.830;5.684;2022-12-18T06:54:52;-1.80;80.80
42755;DHT22;28407;51.830;5.684;2022-12-18T06:56:53;-1.80;80.80
42755;DHT22;28407;51.830;5.684;2022-12-18T06:58:56;-1.80;80.80
42755;DHT22;28407;51.830;5.684;2022-12-18T07:01:01;-1.70;80.70
42755;DHT22;28407;51.830;5.684;2022-12-18T07:03:02;-1.70;80.70
42755;DHT22;28407;51.830;5.684;2022-12-18T07:05:02;-1.70;80.70
42755;DHT22;28407;51.830;5.684;2022-12-18T07:07:03;-1.70;80.70
42755;DHT22;28407;51.830;5.684;2022-12-18T07:09:04;-1.70;80.70
42755;DHT22;28407;51.830;5.684;2022-12-18T07:11:04;-1.70;80.70
42755;DHT22;28407;51.830;5.684;2022-12-18T07:13:05;-1.70;80.60
42755;DHT22;28407;51.830;5.684;2022-12-18T07:15:06;-1.70;80.60
42755;DHT22;28407;51.830;5.684;2022-12-18T07:17:07;-1.70;80.60
42755;DHT22;28407;51.830;5.684;2022-12-18T07:19:08;-1.70;80.70
42755;DHT22;28407;51.830;5.684;2022-12-18T07:21:12;-1.70;80.60
42755;DHT22;28407;51.830;5.684;2022-12-18T07:23:13;-1.70;80.70
42755;DHT22;28407;51.830;5.684;2022-12-18T07:25:13;-1.70;80.80
42755;DHT22;28407;51.830;5.684;2022-12-18T07:27:14;-1.70;80.80
42755;DHT22;28407;51.830;5.684;2022-12-18T07:29:15;-1.70;80.80
42755;DHT22;28407;51.830;5.684;2022-12-18T07:31:18;-1.70;80.80
42755;DHT22;28407;51.830;5.684;2022-12-18T07:33:19;-1.70;80.80
42755;DHT22;28407;51.830;5.684;2022-12-18T07:35:20;-1.60;80.80
42755;DHT22;28407;51.830;5.684;2022-12-18T07:37:20;-1.60;80.70
42755;DHT22;28407;51.830;5.684;2022-12-18T07:39:21;-1.60;80.70
42755;DHT22;28407;51.830;5.684;2022-12-18T07:41:22;-1.50;80.60
42755;DHT22;28407;51.830;5.684;2022-12-18T07:43:22;-1.60;80.50
42755;DHT22;28407;51.830;5.684;2022-12-18T07:45:23;-1.60;80.70
42755;DHT22;28407;51.830;5.684;2022-12-18T07:47:24;-1.60;80.70
42755;DHT22;28407;51.830;5.684;2022-12-18T07:49:24;-1.60;80.60
42755;DHT22;28407;51.830;5.684;2022-12-18T07:51:25;-1.50;80.70
42755;DHT22;28407;51.830;5.684;2022-12-18T07:53:26;-1.50;80.90
42755;DHT22;28407;51.830;5.684;2022-12-18T07:55:26;-1.50;80.80
42755;DHT22;28407;51.830;5.684;2022-12-18T07:57:27;-1.50;80.70
42755;DHT22;28407;51.830;5.684;2022-12-18T07:59:28;-1.50;80.70
42755;DHT22;28407;51.830;5.684;2022-12-18T08:01:28;-1.40;80.70
42755;DHT22;28407;51.830;5.684;2022-12-18T08:03:29;-1.40;80.70
42755;DHT22;28407;51.830;5.684;2022-12-18T08:05:29;-1.40;80.60
42755;DHT22;28407;51.830;5.684;2022-12-18T08:07:30;-1.50;80.50
42755;DHT22;28407;51.830;5.684;2022-12-18T08:09:31;-1.50;80.60
42755;DHT22;28407;51.830;5.684;2022-12-18T08:11:31;-1.40;80.70
42755;DHT22;28407;51.830;5.684;2022-12-18T08:13:32;-1.40;80.70
42755;DHT22;28407;51.830;5.684;2022-12-18T08:15:32;-1.40;80.70
42755;DHT22;28407;51.830;5.684;2022-12-18T08:17:33;-1.40;80.70
42755;DHT22;28407;51.830;5.684;2022-12-18T08:19:34;-1.40;80.70
42755;DHT22;28407;51.830;5.684;2022-12-18T08:21:34;-1.40;80.70
42755;DHT22;28407;51.830;5.684;2022-12-18T08:23:35;-1.40;80.70
42755;DHT22;28407;51.830;5.684;2022-12-18T08:25:36;-1.40;80.70
42755;DHT22;28407;51.830;5.684;2022-12-18T08:27:37;-1.40;80.60
42755;DHT22;28407;51.830;5.684;2022-12-18T08:29:37;-1.40;80.60
42755;DHT22;28407;51.830;5.684;2022-12-18T08:31:38;-1.40;81.20
42755;DHT22;28407;51.830;5.684;2022-12-18T08:33:40;-1.40;80.60
42755;DHT22;28407;51.830;5.684;2022-12-18T08:35:40;-1.40;80.70
42755;DHT22;28407;51.830;5.684;2022-12-18T08:37:41;-1.30;80.70
42755;DHT22;28407;51.830;5.684;2022-12-18T08:39:42;-1.30;80.70
42755;DHT22;28407;51.830;5.684;2022-12-18T08:41:42;-1.30;80.60
42755;DHT22;28407;51.830;5.684;2022-12-18T08:44:03;-1.30;80.70
42755;DHT22;28407;51.830;5.684;2022-12-18T08:46:23;-1.30;80.60
42755;DHT22;28407;51.830;5.684;2022-12-18T08:48:24;-1.40;80.50
42755;DHT22;28407;51.830;5.684;2022-12-18T08:50:25;-1.40;80.60
42755;DHT22;28407;51.830;5.684;2022-12-18T08:52:26;-1.30;80.70
42755;DHT22;28407;51.830;5.684;2022-12-18T08:54:27;-1.30;80.70
42755;DHT22;28407;51.830;5.684;2022-12-18T08:56:28;-1.30;80.70
42755;DHT22;28407;51.830;5.684;2022-12-18T08:58:30;-1.20;80.80
42755;DHT22;28407;51.830;5.684;2022-12-18T09:00:31;-1.20;80.70
42755;DHT22;28407;51.830;5.684;2022-12-18T09:02:31;-1.20;80.70
42755;DHT22;28407;51.830;5.684;2022-12-18T09:04:32;-1.10;81.30
42755;DHT22;28407;51.830;5.684;2022-12-18T09:06:32;-1.10;80.50
42755;DHT22;28407;51.830;5.684;2022-12-18T09:08:33;-1.00;80.50
42755;DHT22;28407;51.830;5.684;2022-12-18T09:10:34;-1.00;80.50
42755;DHT22;28407;51.830;5.684;2022-12-18T09:12:34;-1.00;81.10
42755;DHT22;28407;51.830;5.684;2022-12-18T09:14:36;-0.90;80.50
42755;DHT22;28407;51.830;5.684;2022-12-18T09:16:36;-0.90;80.50
42755;DHT22;28407;51.830;5.684;2022-12-18T09:18:37;-0.90;80.50
42755;DHT22;28407;51.830;5.684;2022-12-18T09:20:38;-0.90;80.50
42755;DHT22;28407;51.830;5.684;2022-12-18T09:22:39;-0.90;80.40
42755;DHT22;28407;51.830;5.684;2022-12-18T09:24:39;-0.80;80.50
42755;DHT22;28407;51.830;5.684;2022-12-18T09:26:40;-0.80;80.50
42755;DHT22;28407;51.830;5.684;2022-12-18T09:28:40;-0.80;80.50
42755;DHT22;28407;51.830;5.684;2022-12-18T09:30:44;-0.80;80.50
42755;DHT22;28407;51.830;5.684;2022-12-18T09:32:45;-0.80;80.50
42755;DHT22;28407;51.830;5.684;2022-12-18T09:34:46;-0.70;80.50
42755;DHT22;28407;51.830;5.684;2022-12-18T09:36:46;-0.70;80.50
42755;DHT22;28407;51.830;5.684;2022-12-18T09:38:47;-0.60;80.40
42755;DHT22;28407;51.830;5.684;2022-12-18T09:40:59;-0.60;80.30
42755;DHT22;28407;51.830;5.684;2022-12-18T09:43:04;-0.60;80.30
42755;DHT22;28407;51.830;5.684;2022-12-18T09:45:07;-0.60;80.20
42755;DHT22;28407;51.830;5.684;2022-12-18T09:49:21;-0.50;80.20
42755;DHT22;28407;51.830;5.684;2022-12-18T09:51:30;-0.50;80.20
42755;DHT22;28407;51.830;5.684;2022-12-18T09:53:35;-0.50;80.20
42755;DHT22;28407;51.830;5.684;2022-12-18T09:55:42;-0.50;80.10
42755;DHT22;28407;51.830;5.684;2022-12-18T09:57:49;-0.50;80.10
42755;DHT22;28407;51.830;5.684;2022-12-18T10:00:18;-0.50;80.20
42755;DHT22;28407;51.830;5.684;2022-12-18T10:02:23;-0.50;80.10
42755;DHT22;28407;51.830;5.684;2022-12-18T10:04:24;-0.50;80.10
42755;DHT22;28407;51.830;5.684;2022-12-18T10:08:39;-0.50;80.10
42755;DHT22;28407;51.830;5.684;2022-12-18T10:10:48;-0.50;80.10
42755;DHT22;28407;51.830;5.684;2022-12-18T10:13:04;-0.50;80.10
42755;DHT22;28407;51.830;5.684;2022-12-18T10:15:19;-0.50;80.10
42755;DHT22;28407;51.830;5.684;2022-12-18T10:19:55;-0.40;80.10
42755;DHT22;28407;51.830;5.684;2022-12-18T10:22:10;-0.40;80.00
42755;DHT22;28407;51.830;5.684;2022-12-18T10:26:14;-0.30;80.10
42755;DHT22;28407;51.830;5.684;2022-12-18T10:28:17;-0.30;80.00
42755;DHT22;28407;51.830;5.684;2022-12-18T10:30:20;-0.20;80.00
42755;DHT22;28407;51.830;5.684;2022-12-18T10:32:30;-0.30;79.90
42755;DHT22;28407;51.830;5.684;2022-12-18T10:34:31;-0.20;80.00
42755;DHT22;28407;51.830;5.684;2022-12-18T10:36:32;-0.20;80.00
42755;DHT22;28407;51.830;5.684;2022-12-18T10:38:32;-0.20;80.00
42755;DHT22;28407;51.830;5.684;2022-12-18T10:43:13;-0.20;79.90
42755;DHT22;28407;51.830;5.684;2022-12-18T10:45:16;-0.10;80.50
42755;DHT22;28407;51.830;5.684;2022-12-18T10:47:18;-0.10;79.80
42755;DHT22;28407;51.830;5.684;2022-12-18T10:49:32;-0.10;79.70
42755;DHT22;28407;51.830;5.684;2022-12-18T10:51:35;-0.10;79.80
42755;DHT22;28407;51.830;5.684;2022-12-18T10:53:37;0.00;79.80
42755;DHT22;28407;51.830;5.684;2022-12-18T10:55:44;0.00;79.80
42755;DHT22;28407;51.830;5.684;2022-12-18T10:57:45;0.00;79.70
42755;DHT22;28407;51.830;5.684;2022-12-18T10:59:55;0.00;79.70
42755;DHT22;28407;51.830;5.684;2022-12-18T11:01:57;0.00;79.60
42755;DHT22;28407;51.830;5.684;2022-12-18T11:04:01;0.10;79.70
42755;DHT22;28407;51.830;5.684;2022-12-18T11:06:11;0.00;79.60
42755;DHT22;28407;51.830;5.684;2022-12-18T11:08:20;0.10;79.70
42755;DHT22;28407;51.830;5.684;2022-12-18T11:10:31;0.10;79.70
42755;DHT22;28407;51.830;5.684;2022-12-18T11:12:32;0.20;79.80
42755;DHT22;28407;51.830;5.684;2022-12-18T11:16:45;0.20;79.60
42755;DHT22;28407;51.830;5.684;2022-12-18T11:18:46;0.30;79.50
42755;DHT22;28407;51.830;5.684;2022-12-18T11:20:59;0.30;79.50
42755;DHT22;28407;51.830;5.684;2022-12-18T11:23:19;0.30;79.40
42755;DHT22;28407;51.830;5.684;2022-12-18T11:25:22;0.40;79.40
42755;DHT22;28407;51.830;5.684;2022-12-18T11:27:23;0.40;79.30
42755;DHT22;28407;51.830;5.684;2022-12-18T11:29:35;0.40;79.40
42755;DHT22;28407;51.830;5.684;2022-12-18T11:31:36;0.40;79.30
42755;DHT22;28407;51.830;5.684;2022-12-18T11:33:38;0.40;79.30
42755;DHT22;28407;51.830;5.684;2022-12-18T11:35:57;0.40;79.30
42755;DHT22;28407;51.830;5.684;2022-12-18T11:38:05;0.50;79.40
42755;DHT22;28407;51.830;5.684;2022-12-18T11:40:14;0.50;79.30
42755;DHT22;28407;51.830;5.684;2022-12-18T11:42:38;0.50;79.30
42755;DHT22;28407;51.830;5.684;2022-12-18T11:49:42;0.60;79.20
42755;DHT22;28407;51.830;5.684;2022-12-18T11:52:00;0.60;79.10
42755;DHT22;28407;51.830;5.684;2022-12-18T11:54:14;0.60;79.00
42755;DHT22;28407;51.830;5.684;2022-12-18T11:56:32;0.60;79.00
42755;DHT22;28407;51.830;5.684;2022-12-18T12:01:29;0.70;78.90
42755;DHT22;28407;51.830;5.684;2022-12-18T12:06:07;0.70;78.90
42755;DHT22;28407;51.830;5.684;2022-12-18T12:15:04;0.90;78.90
42755;DHT22;28407;51.830;5.684;2022-12-18T12:17:41;1.00;78.70
42755;DHT22;28407;51.830;5.684;2022-12-18T12:22:33;1.00;78.40
42755;DHT22;28407;51.830;5.684;2022-12-18T12:29:24;1.00;78.40
42755;DHT22;28407;51.830;5.684;2022-12-18T12:32:03;1.00;78.50
42755;DHT22;28407;51.830;5.684;2022-12-18T12:34:15;1.00;78.50
42755;DHT22;28407;51.830;5.684;2022-12-18T12:38:56;1.00;78.50
42755;DHT22;28407;51.830;5.684;2022-12-18T12:41:06;1.00;78.50
42755;DHT22;28407;51.830;5.684;2022-12-18T12:43:35;1.00;78.60
42755;DHT22;28407;51.830;5.684;2022-12-18T12:45:50;1.00;78.50
42755;DHT22;28407;51.830;5.684;2022-12-18T12:47:54;1.00;78.50
42755;DHT22;28407;51.830;5.684;2022-12-18T12:49:59;1.00;78.40
42755;DHT22;28407;51.830;5.684;2022-12-18T12:52:11;1.00;78.50
42755;DHT22;28407;51.830;5.684;2022-12-18T12:54:20;1.00;78.40
42755;DHT22;28407;51.830;5.684;2022-12-18T12:56:22;1.00;78.40
42755;DHT22;28407;51.830;5.684;2022-12-18T13:01:03;1.10;78.40
42755;DHT22;28407;51.830;5.684;2022-12-18T13:05:50;1.10;78.40
42755;DHT22;28407;51.830;5.684;2022-12-18T13:08:11;1.00;78.30
42755;DHT22;28407;51.830;5.684;2022-12-18T13:12:25;1.00;78.40
42755;DHT22;28407;51.830;5.684;2022-12-18T13:14:44;1.00;78.40
42755;DHT22;28407;51.830;5.684;2022-12-18T13:16:45;1.00;78.40
42755;DHT22;28407;51.830;5.684;2022-12-18T13:18:56;1.00;78.40
42755;DHT22;28407;51.830;5.684;2022-12-18T13:22:58;1.00;78.30
42755;DHT22;28407;51.830;5.684;2022-12-18T13:24:59;1.00;78.30
42755;DHT22;28407;51.830;5.684;2022-12-18T13:27:00;1.10;78.30
42755;DHT22;28407;51.830;5.684;2022-12-18T13:29:44;1.00;78.30
42755;DHT22;28407;51.830;5.684;2022-12-18T13:33:48;1.10;78.30
42755;DHT22;28407;51.830;5.684;2022-12-18T13:42:40;1.10;78.20
42755;DHT22;28407;51.830;5.684;2022-12-18T13:44:59;1.10;78.00
42755;DHT22;28407;51.830;5.684;2022-12-18T13:47:05;1.10;78.10
42755;DHT22;28407;51.830;5.684;2022-12-18T13:51:34;1.10;78.10
42755;DHT22;28407;51.830;5.684;2022-12-18T13:53:36;1.10;78.10
42755;DHT22;28407;51.830;5.684;2022-12-18T13:55:44;1.10;78.00
42755;DHT22;28407;51.830;5.684;2022-12-18T13:57:45;1.10;78.00
42755;DHT22;28407;51.830;5.684;2022-12-18T13:59:46;1.10;78.00
42755;DHT22;28407;51.830;5.684;2022-12-18T14:01:53;1.00;77.90
42755;DHT22;28407;51.830;5.684;2022-12-18T14:06:19;1.00;78.00
42755;DHT22;28407;51.830;5.684;2022-12-18T14:08:20;1.00;78.00
42755;DHT22;28407;51.830;5.684;2022-12-18T14:10:22;1.00;78.00
42755;DHT22;28407;51.830;5.684;2022-12-18T14:12:27;1.00;78.00
42755;DHT22;28407;51.830;5.684;2022-12-18T14:14:48;1.00;78.00
42755;DHT22;28407;51.830;5.684;2022-12-18T14:16:50;1.00;77.90
42755;DHT22;28407;51.830;5.684;2022-12-18T14:18:54;1.00;77.90
42755;DHT22;28407;51.830;5.684;2022-12-18T14:20:57;1.00;77.90
42755;DHT22;28407;51.830;5.684;2022-12-18T14:22:59;1.00;77.90
42755;DHT22;28407;51.830;5.684;2022-12-18T14:27:21;1.00;78.00
42755;DHT22;28407;51.830;5.684;2022-12-18T14:29:28;1.00;77.90
42755;DHT22;28407;51.830;5.684;2022-12-18T14:31:30;1.00;77.90
42755;DHT22;28407;51.830;5.684;2022-12-18T14:33:31;1.00;77.90